River & Lake Conditions

Stages:
  • Latest Observation

    Normal Stage: 10.58 ft3.2 m

    Flow: 143 kcfs
    Impacts: Above 8.7 to 9.2 feet, the Corps will raise the gates out of the water, allowing for open river conditions. This corresponds to a discharge of approximately 110,000 cfs.
  • Stages

Stage Date Flow
11.10 ft3.38 mForecast 05/12/2016 12:00 am 151.000 kcfs
11.20 ft3.41 mForecast 05/11/2016 06:00 pm 152.000 kcfs
11.20 ft3.41 mForecast 05/11/2016 12:00 pm 152.000 kcfs
11.30 ft3.44 mForecast 05/11/2016 06:00 am 154.000 kcfs
11.30 ft3.44 mForecast 05/11/2016 12:00 am 154.000 kcfs
11.30 ft3.44 mForecast 05/10/2016 06:00 pm 154.000 kcfs
11.40 ft3.47 mForecast 05/10/2016 12:00 pm 155.000 kcfs
11.40 ft3.47 mForecast 05/10/2016 06:00 am 155.000 kcfs
11.50 ft3.51 mForecast 05/10/2016 12:00 am 157.000 kcfs
11.50 ft3.51 mForecast 05/09/2016 06:00 pm 157.000 kcfs
11.50 ft3.51 mForecast 05/09/2016 12:00 pm 157.000 kcfs
11.60 ft3.54 mForecast 05/09/2016 06:00 am 159.000 kcfs
11.60 ft3.54 mForecast 05/09/2016 12:00 am 159.000 kcfs
11.60 ft3.54 mForecast 05/08/2016 06:00 pm 159.000 kcfs
11.60 ft3.54 mForecast 05/08/2016 12:00 pm 159.000 kcfs
11.60 ft3.54 mForecast 05/08/2016 06:00 am 159.000 kcfs
11.60 ft3.54 mForecast 05/08/2016 12:00 am 159.000 kcfs
11.60 ft3.54 mForecast 05/07/2016 06:00 pm 159.000 kcfs
11.50 ft3.51 mForecast 05/07/2016 12:00 pm 157.000 kcfs
11.50 ft3.51 mForecast 05/07/2016 06:00 am 157.000 kcfs
11.40 ft3.47 mForecast 05/07/2016 12:00 am 155.000 kcfs
11.40 ft3.47 mForecast 05/06/2016 06:00 pm 155.000 kcfs
11.30 ft3.44 mForecast 05/06/2016 12:00 pm 154.000 kcfs
11.20 ft3.41 mForecast 05/06/2016 06:00 am 152.000 kcfs
11.10 ft3.38 mForecast 05/06/2016 12:00 am 151.000 kcfs
11.10 ft3.38 mForecast 05/05/2016 06:00 pm 151.000 kcfs
11.00 ft3.35 mForecast 05/05/2016 12:00 pm 149.000 kcfs
10.90 ft3.32 mForecast 05/05/2016 06:00 am 148.000 kcfs
10.80 ft3.29 mForecast 05/05/2016 12:00 am 146.000 kcfs
10.70 ft3.26 mForecast 05/04/2016 06:00 pm 145.000 kcfs
10.60 ft3.23 mForecast 05/04/2016 12:00 pm 143.000 kcfs
10.58 ft3.23 m 05/04/2016 10:30 am 143.000 kcfs
10.63 ft3.23 m 05/04/2016 10:20 am 144.000 kcfs
10.59 ft3.23 m 05/04/2016 10:10 am 143.000 kcfs
10.57 ft3.23 m 05/04/2016 10:00 am 143.000 kcfs
10.58 ft3.23 m 05/04/2016 09:50 am 143.000 kcfs
10.55 ft3.23 m 05/04/2016 09:40 am 143.000 kcfs
10.54 ft3.23 m 05/04/2016 09:30 am 142.000 kcfs
10.54 ft3.23 m 05/04/2016 09:20 am 142.000 kcfs
10.56 ft3.23 m 05/04/2016 09:10 am 143.000 kcfs
10.55 ft3.23 m 05/04/2016 09:00 am 143.000 kcfs
10.52 ft3.23 m 05/04/2016 07:30 am 142.000 kcfs
10.51 ft3.23 m 05/04/2016 07:20 am 142.000 kcfs
10.51 ft3.23 m 05/04/2016 07:10 am 142.000 kcfs
10.53 ft3.23 m 05/04/2016 07:00 am 142.000 kcfs
10.53 ft3.23 m 05/04/2016 06:50 am 142.000 kcfs
10.51 ft3.23 m 05/04/2016 06:40 am 142.000 kcfs
10.51 ft3.23 m 05/04/2016 06:30 am 142.000 kcfs
10.51 ft3.23 m 05/04/2016 05:30 am 142.000 kcfs
10.52 ft3.23 m 05/04/2016 05:20 am 142.000 kcfs
10.49 ft3.23 m 05/04/2016 05:10 am 142.000 kcfs
10.49 ft3.23 m 05/04/2016 04:30 am 142.000 kcfs
10.50 ft3.23 m 05/04/2016 04:20 am 142.000 kcfs
10.50 ft3.23 m 05/04/2016 04:10 am 142.000 kcfs
10.50 ft3.23 m 05/04/2016 04:00 am 142.000 kcfs
10.43 ft3.23 m 05/04/2016 01:00 am 141.000 kcfs
10.34 ft3.23 m 05/04/2016 12:50 am 139.000 kcfs
10.45 ft3.23 m 05/04/2016 12:40 am 141.000 kcfs
10.48 ft3.23 m 05/04/2016 12:30 am 141.000 kcfs
10.44 ft3.23 m 05/04/2016 12:20 am 141.000 kcfs
10.41 ft3.23 m 05/03/2016 11:00 pm 140.000 kcfs
10.40 ft3.23 m 05/03/2016 10:50 pm 140.000 kcfs